createdAt,value
2019-04-25T00:00:48.758Z,4.80
2019-04-25T00:03:22.245Z,3.87
2019-04-25T00:05:52.630Z,2.83
2019-04-25T00:08:23.902Z,2.85
2019-04-25T00:10:54.240Z,3.77
2019-04-25T00:13:24.929Z,3.22
2019-04-25T00:15:55.153Z,4.05
2019-04-25T00:18:25.757Z,4.05
2019-04-25T00:20:57.829Z,4.95
2019-04-25T00:23:28.044Z,3.02
2019-04-25T00:26:01.405Z,4.33
2019-04-25T00:28:32.129Z,6.55
2019-04-25T00:31:03.084Z,3.10
2019-04-25T00:33:33.303Z,3.20
2019-04-25T00:36:04.482Z,4.97
2019-04-25T00:38:34.686Z,5.12
2019-04-25T00:41:05.001Z,4.22
2019-04-25T00:43:35.208Z,5.35
2019-04-25T00:46:05.413Z,3.98
2019-04-25T00:48:35.906Z,3.20
2019-04-25T00:51:06.298Z,2.65
2019-04-25T00:53:36.542Z,4.33
2019-04-25T00:56:06.764Z,6.75
2019-04-25T00:58:52.843Z,7.47
2019-04-25T01:01:43.109Z,7.17
2019-04-25T01:04:15.835Z,5.40
2019-04-25T01:06:46.223Z,7.12
2019-04-25T01:09:18.176Z,5.10
2019-04-25T01:11:48.800Z,5.35
2019-04-25T01:14:19.081Z,5.20
2019-04-25T01:16:49.650Z,4.35
2019-04-25T01:19:19.975Z,6.30
2019-04-25T01:21:50.158Z,3.65
2019-04-25T01:24:20.535Z,4.08
2019-04-25T01:26:51.640Z,5.00
2019-04-25T01:29:23.399Z,6.47
2019-04-25T01:31:54.453Z,5.33
2019-04-25T01:34:29.765Z,4.40
2019-04-25T01:37:34.104Z,4.42
2019-04-25T01:40:24.313Z,4.90
2019-04-25T01:43:03.720Z,7.95
2019-04-25T01:45:36.182Z,5.75
2019-04-25T01:48:06.720Z,8.45
2019-04-25T01:50:37.179Z,5.97
2019-04-25T01:53:07.472Z,6.47
2019-04-25T01:55:37.914Z,5.55
2019-04-25T01:58:08.198Z,6.93
2019-04-25T02:00:44.920Z,5.50
2019-04-25T02:03:15.646Z,5.03
2019-04-25T02:05:45.839Z,4.90
2019-04-25T02:08:16.036Z,6.37
2019-04-25T02:10:50.751Z,8.53
2019-04-25T02:13:23.619Z,7.70
2019-04-25T02:15:55.178Z,4.72
2019-04-25T02:18:25.920Z,5.35
2019-04-25T02:20:59.313Z,7.28
2019-04-25T02:23:28.706Z,4.72
2019-04-25T02:26:12.636Z,6.72
2019-04-25T02:28:30.845Z,4.70
2019-04-25T02:31:03.818Z,5.62
2019-04-25T02:33:34.038Z,7.45
2019-04-25T02:36:08.633Z,5.90
2019-04-25T02:38:59.562Z,6.50
2019-04-25T02:41:26.440Z,5.65
2019-04-25T02:44:01.211Z,7.75
2019-04-25T02:46:37.386Z,7.72
2019-04-25T02:49:29.735Z,8.28
2019-04-25T02:52:02.341Z,9.20
2019-04-25T02:54:34.815Z,7.05
2019-04-25T02:57:07.817Z,8.55
2019-04-25T02:59:37.017Z,7.47
2019-04-25T03:02:09.209Z,5.97
2019-04-25T03:04:40.935Z,9.98
2019-04-25T03:07:11.521Z,5.08
2019-04-25T03:09:41.911Z,6.15
2019-04-25T03:12:26.681Z,4.50
2019-04-25T03:14:44.769Z,8.03
2019-04-25T03:17:16.329Z,10.98
2019-04-25T03:19:50.809Z,8.73
2019-04-25T03:22:26.376Z,6.95
2019-04-25T03:24:55.905Z,10.28
2019-04-25T03:27:26.098Z,8.85
2019-04-25T03:29:56.332Z,8.60
2019-04-25T03:32:35.264Z,7.78
2019-04-25T03:35:08.903Z,9.30
2019-04-25T03:37:40.059Z,12.13
2019-04-25T03:40:13.967Z,11.03
2019-04-25T03:42:47.644Z,11.85
2019-04-25T03:45:17.858Z,16.57
2019-04-25T03:47:48.079Z,13.70
2019-04-25T03:50:18.316Z,17.57
2019-04-25T03:52:48.566Z,21.02
2019-04-25T03:55:18.806Z,17.55
2019-04-25T03:58:10.541Z,11.65
2019-04-25T04:00:39.766Z,13.15
2019-04-25T04:03:09.999Z,12.15
2019-04-25T04:05:40.187Z,12.43
2019-04-25T04:08:10.424Z,10.65
2019-04-25T04:10:40.680Z,12.33
2019-04-25T04:13:10.935Z,11.88
2019-04-25T04:15:41.117Z,11.15
2019-04-25T04:18:16.267Z,13.80
2019-04-25T04:20:56.319Z,13.00
2019-04-25T04:23:30.898Z,13.98
2019-04-25T04:26:01.103Z,11.48
2019-04-25T04:28:33.724Z,12.75
2019-04-25T04:31:04.038Z,12.70
2019-04-25T04:33:34.647Z,14.98
2019-04-25T04:36:04.941Z,13.70
2019-04-25T04:38:35.226Z,12.88
2019-04-25T04:41:05.479Z,13.32
2019-04-25T04:43:35.686Z,16.45
2019-04-25T04:46:05.893Z,14.78
2019-04-25T04:48:36.106Z,20.00
2019-04-25T04:51:06.302Z,13.75
2019-04-25T04:53:36.598Z,16.42
2019-04-25T04:56:06.832Z,15.78
2019-04-25T04:58:37.053Z,13.98
2019-04-25T05:01:07.543Z,11.22
2019-04-25T05:03:39.760Z,10.55
2019-04-25T05:06:11.595Z,10.72
2019-04-25T05:08:43.573Z,8.48
2019-04-25T05:11:15.808Z,5.78
2019-04-25T05:13:46.810Z,6.90
2019-04-25T05:16:17.724Z,8.33
2019-04-25T05:18:48.292Z,6.70
2019-04-25T05:21:18.506Z,6.08
2019-04-25T05:23:48.806Z,7.15
2019-04-25T05:26:19.097Z,11.08
2019-04-25T05:28:50.547Z,8.68
2019-04-25T05:31:22.386Z,7.42
2019-04-25T05:33:53.633Z,9.75
2019-04-25T05:36:25.879Z,10.98
2019-04-25T05:38:56.064Z,8.43
2019-04-25T05:41:30.814Z,10.53
2019-04-25T05:44:01.002Z,8.73
2019-04-25T05:46:31.213Z,8.03
2019-04-25T05:49:01.414Z,8.98
2019-04-25T05:51:31.691Z,7.28
2019-04-25T05:54:01.890Z,9.15
2019-04-25T05:56:33.626Z,7.87
2019-04-25T05:59:05.521Z,11.30
2019-04-25T06:01:36.102Z,6.42
2019-04-25T06:04:06.310Z,8.17
2019-04-25T06:06:36.953Z,6.67
2019-04-25T06:09:15.098Z,10.80
2019-04-25T06:11:46.960Z,7.87
2019-04-25T06:14:19.751Z,8.30
2019-04-25T06:16:53.623Z,10.68
2019-04-25T06:19:43.409Z,8.28
2019-04-25T06:22:20.946Z,10.05
2019-04-25T06:24:54.180Z,10.93
2019-04-25T06:27:27.044Z,10.20
2019-04-25T06:30:00.980Z,9.10
2019-04-25T06:32:35.027Z,9.43
2019-04-25T06:35:06.234Z,5.05
2019-04-25T06:37:36.440Z,9.40
2019-04-25T06:40:09.189Z,7.33
2019-04-25T06:42:39.467Z,10.20
2019-04-25T06:45:31.026Z,8.50
2019-04-25T06:50:36.090Z,7.50
2019-04-25T06:53:06.810Z,6.80
2019-04-25T06:55:37.053Z,7.50
2019-04-25T06:58:11.956Z,8.68
2019-04-25T07:00:42.586Z,6.90
2019-04-25T07:03:11.377Z,6.53
2019-04-25T07:05:41.568Z,4.47
2019-04-25T07:08:13.323Z,5.75
2019-04-25T07:10:44.636Z,8.15
2019-04-25T07:13:15.268Z,2.95
2019-04-25T07:15:45.615Z,4.72
2019-04-25T07:18:15.827Z,4.60
2019-04-25T07:20:46.032Z,2.77
2019-04-25T07:23:16.226Z,6.10
2019-04-25T07:25:48.148Z,5.70
2019-04-25T07:28:24.240Z,5.12
2019-04-25T07:30:59.258Z,4.20
2019-04-25T07:33:35.060Z,10.75
2019-04-25T07:36:06.346Z,8.90
2019-04-25T07:38:36.594Z,5.58
2019-04-25T07:41:06.820Z,4.30
2019-04-25T07:43:37.143Z,7.80
2019-04-25T07:46:10.902Z,6.53
2019-04-25T07:48:53.553Z,10.85
2019-04-25T07:51:26.896Z,4.90
2019-04-25T07:53:59.924Z,7.33
2019-04-25T07:56:34.969Z,5.12
2019-04-25T07:59:07.286Z,8.43
2019-04-25T08:01:38.778Z,8.60
2019-04-25T08:04:14.796Z,6.35
2019-04-25T08:06:45.074Z,4.65
2019-04-25T08:09:16.068Z,5.15
2019-04-25T08:11:46.263Z,5.25
2019-04-25T08:14:18.075Z,4.45
2019-04-25T08:16:58.597Z,4.08
2019-04-25T08:19:29.606Z,3.63
2019-04-25T08:22:00.029Z,3.87
2019-04-25T08:24:30.776Z,8.13
2019-04-25T08:27:01.069Z,5.67
2019-04-25T08:29:31.803Z,6.15
2019-04-25T08:32:02.139Z,4.17
2019-04-25T08:34:34.160Z,3.52
2019-04-25T08:37:04.415Z,4.70
2019-04-25T08:39:38.036Z,3.77
2019-04-25T08:42:06.530Z,5.17
2019-04-25T08:44:36.994Z,6.42
2019-04-25T08:47:07.411Z,6.95
2019-04-25T08:49:39.924Z,3.10
2019-04-25T08:52:10.615Z,4.08
2019-04-25T08:54:49.533Z,7.58
2019-04-25T08:57:21.467Z,6.80
2019-04-25T09:00:04.247Z,3.50
2019-04-25T09:02:38.931Z,5.67
2019-04-25T09:05:32.630Z,5.30
2019-04-25T09:08:20.437Z,4.80
2019-04-25T09:10:50.691Z,5.72
2019-04-25T09:13:20.906Z,6.33
2019-04-25T09:15:51.319Z,4.53
2019-04-25T09:18:24.060Z,5.85
2019-04-25T09:20:54.311Z,4.42
2019-04-25T09:23:45.378Z,7.12
2019-04-25T09:26:15.608Z,6.22
2019-04-25T09:28:46.689Z,5.60
2019-04-25T09:31:18.063Z,4.35
2019-04-25T09:33:49.893Z,7.30
2019-04-25T09:36:20.075Z,6.87
2019-04-25T09:38:51.940Z,5.58
2019-04-25T09:41:23.567Z,6.03
2019-04-25T09:43:55.710Z,3.33
2019-04-25T09:46:30.319Z,5.87
2019-04-25T09:49:05.176Z,4.53
2019-04-25T09:51:38.071Z,4.67
2019-04-25T09:54:09.930Z,4.87
2019-04-25T09:56:47.923Z,6.50
2019-04-25T09:59:27.172Z,6.83
2019-04-25T10:01:51.823Z,5.42
2019-04-25T10:04:23.056Z,7.37
2019-04-25T10:06:54.019Z,4.78
2019-04-25T10:09:24.293Z,3.83
2019-04-25T10:11:54.822Z,13.78
2019-04-25T10:14:47.945Z,3.12
2019-04-25T10:17:18.626Z,5.03
2019-04-25T10:19:48.857Z,3.60
2019-04-25T10:24:59.885Z,4.08
2019-04-25T10:27:21.402Z,3.87
2019-04-25T10:29:54.485Z,3.50
2019-04-25T10:32:23.913Z,7.70
2019-04-25T10:34:54.172Z,3.58
2019-04-25T10:37:24.463Z,5.22
2019-04-25T10:39:55.686Z,2.90
2019-04-25T10:42:26.346Z,4.50
2019-04-25T10:44:56.729Z,4.20
2019-04-25T10:47:27.033Z,5.53
2019-04-25T10:49:59.157Z,7.03
2019-04-25T10:52:29.103Z,3.55
2019-04-25T10:54:59.338Z,4.10
2019-04-25T10:57:29.609Z,2.02
2019-04-25T11:00:06.248Z,2.72
2019-04-25T11:02:33.911Z,4.95
2019-04-25T11:05:08.201Z,5.70
2019-04-25T11:07:38.470Z,3.37
2019-04-25T11:10:09.009Z,5.33
2019-04-25T11:12:39.994Z,2.50
2019-04-25T11:15:10.644Z,4.10
2019-04-25T11:17:40.817Z,1.90
2019-04-25T11:20:14.419Z,2.98
2019-04-25T11:22:45.909Z,3.77
2019-04-25T11:25:18.998Z,3.08
2019-04-25T11:27:49.925Z,3.42
2019-04-25T11:30:22.537Z,5.62
2019-04-25T11:32:53.498Z,3.30
2019-04-25T11:35:27.964Z,2.77
2019-04-25T11:37:59.891Z,4.28
2019-04-25T11:40:37.356Z,3.62
2019-04-25T11:43:07.601Z,3.67
2019-04-25T11:48:25.493Z,1.67
2019-04-25T11:50:55.934Z,5.30
2019-04-25T11:53:26.309Z,3.00
2019-04-25T11:55:56.591Z,3.40
2019-04-25T11:58:27.314Z,3.80
2019-04-25T12:00:58.032Z,7.87
2019-04-25T12:03:28.427Z,7.60
2019-04-25T12:05:58.717Z,6.42
2019-04-25T12:08:28.901Z,4.05
2019-04-25T12:10:59.129Z,4.85
2019-04-25T12:13:29.347Z,3.17
2019-04-25T12:15:59.662Z,5.00
2019-04-25T12:18:29.850Z,7.47
2019-04-25T12:21:00.081Z,2.52
2019-04-25T12:23:30.328Z,6.25
2019-04-25T12:26:00.548Z,8.70
2019-04-25T12:28:30.818Z,5.72
2019-04-25T12:31:01.027Z,2.98
2019-04-25T12:33:31.235Z,4.28
2019-04-25T12:36:01.431Z,3.65
2019-04-25T12:38:35.080Z,4.47
2019-04-25T12:41:04.115Z,3.67
2019-04-25T12:43:37.800Z,2.47
2019-04-25T12:46:27.895Z,7.17
2019-04-25T12:48:58.079Z,2.77
2019-04-25T12:51:28.328Z,4.15
2019-04-25T12:53:58.582Z,5.85
2019-04-25T12:56:28.791Z,5.85
2019-04-25T12:58:58.973Z,3.77
2019-04-25T13:01:29.178Z,2.62
2019-04-25T13:03:59.443Z,3.33
2019-04-25T13:06:29.656Z,2.72
2019-04-25T13:08:59.846Z,4.83
2019-04-25T13:11:30.052Z,3.08
2019-04-25T13:14:00.587Z,2.95
2019-04-25T13:16:30.865Z,5.12
2019-04-25T13:19:14.408Z,5.83
2019-04-25T13:21:34.285Z,8.28
2019-04-25T13:24:05.297Z,6.10
2019-04-25T13:26:37.244Z,5.87
2019-04-25T13:29:13.248Z,3.45
2019-04-25T13:31:55.783Z,4.78
2019-04-25T13:34:36.074Z,2.58
2019-04-25T13:36:59.615Z,6.55
2019-04-25T13:39:29.811Z,4.62
2019-04-25T13:42:01.915Z,2.92
2019-04-25T13:44:31.874Z,2.75
2019-04-25T13:47:02.078Z,2.80
2019-04-25T13:49:32.267Z,3.33
2019-04-25T13:52:03.349Z,3.75
2019-04-25T13:54:34.971Z,3.83
2019-04-25T13:57:05.337Z,3.95
2019-04-25T13:59:36.856Z,4.45
2019-04-25T14:02:07.049Z,2.85
2019-04-25T14:04:37.306Z,3.37
2019-04-25T14:07:07.500Z,2.72
2019-04-25T14:09:55.816Z,2.30
2019-04-25T14:12:27.592Z,2.35
2019-04-25T14:14:57.981Z,2.10
2019-04-25T14:17:35.826Z,2.65
2019-04-25T14:20:09.129Z,1.75
2019-04-25T14:22:39.683Z,3.83
2019-04-25T14:25:09.944Z,2.22
2019-04-25T14:27:45.623Z,0.82
2019-04-25T14:30:17.576Z,1.75
2019-04-25T14:32:47.804Z,1.52
2019-04-25T14:35:18.049Z,4.62
2019-04-25T14:37:48.338Z,4.35
2019-04-25T14:40:18.622Z,1.05
2019-04-25T14:42:51.291Z,3.00
2019-04-25T14:45:22.584Z,2.12
2019-04-25T14:47:53.022Z,1.80
2019-04-25T14:50:23.293Z,1.17
2019-04-25T14:52:53.481Z,2.62
2019-04-25T14:55:29.610Z,1.82
2019-04-25T14:58:04.512Z,2.27
2019-04-25T15:00:42.608Z,3.10
2019-04-25T15:03:12.975Z,2.20
2019-04-25T15:05:43.571Z,1.75
2019-04-25T15:08:13.907Z,3.83
2019-04-25T15:10:44.083Z,2.40
2019-04-25T15:13:17.484Z,2.83
2019-04-25T15:15:47.936Z,2.60
2019-04-25T15:20:48.422Z,1.67
2019-04-25T15:23:18.617Z,2.05
2019-04-25T15:25:48.807Z,3.42
2019-04-25T15:28:19.017Z,3.22
2019-04-25T15:30:49.262Z,1.87
2019-04-25T15:33:19.525Z,0.95
2019-04-25T15:35:52.468Z,1.00
2019-04-25T15:38:54.036Z,3.50
2019-04-25T15:41:39.891Z,2.75
2019-04-25T15:44:20.524Z,3.50
2019-04-25T15:46:52.614Z,2.10
2019-04-25T15:49:22.998Z,2.72
2019-04-25T15:51:53.177Z,1.22
2019-04-25T15:54:23.376Z,5.37
2019-04-25T15:56:53.558Z,4.87
2019-04-25T15:59:23.763Z,2.77
2019-04-25T16:02:07.455Z,4.78
2019-04-25T16:04:28.219Z,3.77
2019-04-25T16:06:58.870Z,2.37
2019-04-25T16:09:39.509Z,1.30
2019-04-25T16:12:11.132Z,3.55
2019-04-25T16:14:41.353Z,6.07
2019-04-25T16:17:12.866Z,3.98
2019-04-25T16:19:43.091Z,2.62
2019-04-25T16:22:14.247Z,1.98
2019-04-25T16:24:44.543Z,1.50
2019-04-25T16:27:15.925Z,2.62
2019-04-25T16:32:20.622Z,1.80
2019-04-25T16:34:49.176Z,2.45
2019-04-25T16:37:19.353Z,3.45
2019-04-25T16:39:50.124Z,3.02
2019-04-25T16:42:20.304Z,3.55
2019-04-25T16:44:50.542Z,2.40
2019-04-25T16:47:23.113Z,2.17
2019-04-25T16:49:54.867Z,2.92
2019-04-25T16:52:27.049Z,2.60
2019-04-25T16:55:09.698Z,1.90
2019-04-25T16:57:39.876Z,1.70
2019-04-25T17:00:12.762Z,2.00
2019-04-25T17:02:44.623Z,1.35
2019-04-25T17:05:15.123Z,2.10
2019-04-25T17:07:45.385Z,1.62
2019-04-25T17:12:48.276Z,3.17
2019-04-25T17:15:26.166Z,2.42
2019-04-25T17:18:06.801Z,2.58
2019-04-25T17:20:39.632Z,1.67
2019-04-25T17:23:12.306Z,3.00
2019-04-25T17:25:42.650Z,5.85
2019-04-25T17:28:13.146Z,1.30
2019-04-25T17:30:45.110Z,1.10
2019-04-25T17:33:35.719Z,2.65
2019-04-25T17:36:10.158Z,4.33
2019-04-25T17:38:42.228Z,2.52
2019-04-25T17:41:12.881Z,2.17
2019-04-25T17:43:43.845Z,2.42
2019-04-25T17:48:45.399Z,4.87
2019-04-25T17:51:15.620Z,6.83
2019-04-25T17:53:45.807Z,4.45
2019-04-25T17:56:16.012Z,9.85
2019-04-25T17:58:46.227Z,6.72
2019-04-25T18:01:18.201Z,3.55
2019-04-25T18:03:48.398Z,4.30
2019-04-25T18:06:18.603Z,4.92
2019-04-25T18:08:51.638Z,3.33
2019-04-25T18:11:22.136Z,2.77
2019-04-25T18:13:52.302Z,3.60
2019-04-25T18:16:42.347Z,3.17
2019-04-25T18:19:15.694Z,4.20
2019-04-25T18:21:45.924Z,5.72
2019-04-25T18:24:17.749Z,4.90
2019-04-25T18:26:49.701Z,3.55
2019-04-25T18:29:21.618Z,2.20
2019-04-25T18:31:51.880Z,1.92
2019-04-25T18:34:42.258Z,2.95
2019-04-25T18:37:17.321Z,4.70
2019-04-25T18:40:01.450Z,3.22
2019-04-25T18:42:46.656Z,5.33
2019-04-25T18:45:24.367Z,2.98
2019-04-25T18:47:54.577Z,3.40
2019-04-25T18:50:27.324Z,4.10
2019-04-25T18:53:02.099Z,3.98
2019-04-25T18:55:50.455Z,3.80
2019-04-25T18:58:23.284Z,3.50
2019-04-25T19:01:00.366Z,3.15
2019-04-25T19:03:46.368Z,3.02
2019-04-25T19:06:18.221Z,4.50
2019-04-25T19:08:48.918Z,4.28
2019-04-25T19:11:20.782Z,4.97
2019-04-25T19:13:51.686Z,7.10
2019-04-25T19:16:22.110Z,5.33
2019-04-25T19:18:52.390Z,3.92
2019-04-25T19:21:23.146Z,9.33
2019-04-25T19:23:55.906Z,5.83
2019-04-25T19:26:26.262Z,4.25
2019-04-25T19:28:56.490Z,3.52
2019-04-25T19:31:27.053Z,4.50
2019-04-25T19:33:57.354Z,5.03
2019-04-25T19:36:27.732Z,4.85
2019-04-25T19:41:39.182Z,2.72
2019-04-25T19:44:17.198Z,2.87
2019-04-25T19:46:51.391Z,4.03
2019-04-25T19:49:30.668Z,2.85
2019-04-25T19:52:03.831Z,2.85
2019-04-25T19:54:40.888Z,3.17
2019-04-25T19:57:12.421Z,3.70
2019-04-25T19:59:43.250Z,2.08
2019-04-25T20:05:07.222Z,3.22
2019-04-25T20:07:39.314Z,2.45
2019-04-25T20:10:26.215Z,1.30
2019-04-25T20:12:56.507Z,1.00
2019-04-25T20:15:26.695Z,1.17
2019-04-25T20:17:56.992Z,1.17
2019-04-25T20:20:27.188Z,0.78
2019-04-25T20:22:57.411Z,1.10
2019-04-25T20:25:27.658Z,1.90
2019-04-25T20:27:57.882Z,0.88
2019-04-25T20:30:28.087Z,1.20
2019-04-25T20:32:58.358Z,2.35
2019-04-25T20:35:28.549Z,3.12
2019-04-25T20:37:58.782Z,2.80
2019-04-25T20:40:29.063Z,1.65
2019-04-25T20:42:59.307Z,1.37
2019-04-25T20:45:29.559Z,2.17
2019-04-25T20:47:59.974Z,2.58
2019-04-25T20:50:30.159Z,2.00
2019-04-25T20:53:00.537Z,1.47
2019-04-25T20:55:30.732Z,2.25
2019-04-25T20:58:00.929Z,1.40
2019-04-25T21:00:40.238Z,2.17
2019-04-25T21:03:11.077Z,1.47
2019-04-25T21:05:42.846Z,1.20
2019-04-25T21:08:13.125Z,1.62
2019-04-25T21:10:43.366Z,1.20
2019-04-25T21:13:15.240Z,1.25
2019-04-25T21:15:59.912Z,2.05
2019-04-25T21:18:31.750Z,1.00
2019-04-25T21:21:02.033Z,1.62
2019-04-25T21:23:32.309Z,1.42
2019-04-25T21:26:39.374Z,1.30
2019-04-25T21:29:09.663Z,2.17
2019-04-25T21:31:39.922Z,1.52
2019-04-25T21:34:10.365Z,4.80
2019-04-25T21:36:41.025Z,2.10
2019-04-25T21:39:19.680Z,1.72
2019-04-25T21:42:16.904Z,1.72
2019-04-25T21:44:47.672Z,3.50
2019-04-25T21:47:17.979Z,2.00
2019-04-25T21:49:48.466Z,1.93
2019-04-25T21:52:19.257Z,2.92
2019-04-25T21:54:49.719Z,2.37
2019-04-25T21:57:20.539Z,2.12
2019-04-25T22:00:00.326Z,2.35
2019-04-25T22:02:23.553Z,1.80
2019-04-25T22:04:54.182Z,1.52
2019-04-25T22:07:25.818Z,2.72
2019-04-25T22:09:56.969Z,1.55
2019-04-25T22:12:27.575Z,1.40
2019-04-25T22:14:57.858Z,1.77
2019-04-25T22:17:28.041Z,2.05
2019-04-25T22:19:58.731Z,6.20
2019-04-25T22:22:29.979Z,1.22
2019-04-25T22:25:00.502Z,1.72
2019-04-25T22:27:33.085Z,2.05
2019-04-25T22:30:07.705Z,1.20
2019-04-25T22:32:40.602Z,2.15
2019-04-25T22:35:12.479Z,1.15
2019-04-25T22:37:42.702Z,1.40
2019-04-25T22:40:12.998Z,1.30
2019-04-25T22:42:43.170Z,1.65
2019-04-25T22:45:13.373Z,1.45
2019-04-25T22:47:43.566Z,2.80
2019-04-25T22:50:13.854Z,1.20
2019-04-25T22:52:44.044Z,2.35
2019-04-25T22:55:14.345Z,1.40
2019-04-25T22:57:44.906Z,1.50
2019-04-25T23:00:28.670Z,1.85
2019-04-25T23:03:01.897Z,1.40
2019-04-25T23:05:34.147Z,1.92
2019-04-25T23:08:05.824Z,3.10
2019-04-25T23:10:36.183Z,1.50
2019-04-25T23:13:06.760Z,1.55
2019-04-25T23:15:37.141Z,2.12
2019-04-25T23:18:07.599Z,1.67
2019-04-25T23:20:37.804Z,5.30
2019-04-25T23:23:08.361Z,2.37
2019-04-25T23:25:55.241Z,2.00
2019-04-25T23:28:27.654Z,1.52
2019-04-25T23:30:59.514Z,1.67
2019-04-25T23:33:29.689Z,1.60
2019-04-25T23:36:00.259Z,1.80
2019-04-25T23:38:30.426Z,1.70
2019-04-25T23:41:00.636Z,1.80
2019-04-25T23:43:30.823Z,1.60
2019-04-25T23:46:01.042Z,1.72
2019-04-25T23:48:32.867Z,2.08
2019-04-25T23:51:04.359Z,2.22
2019-04-25T23:53:35.018Z,2.40
2019-04-25T23:56:05.451Z,2.25
2019-04-25T23:58:35.637Z,4.10
